createdAt,value
2018-02-27T00:02:14.369Z,-6.90
2018-02-27T00:04:43.419Z,-7.00
2018-02-27T00:07:11.687Z,-7.00
2018-02-27T00:09:39.987Z,-7.00
2018-02-27T00:12:08.315Z,-7.10
2018-02-27T00:14:37.001Z,-7.00
2018-02-27T00:17:05.295Z,-7.10
2018-02-27T00:19:33.606Z,-7.10
2018-02-27T00:22:01.863Z,-7.20
2018-02-27T00:24:30.196Z,-7.20
2018-02-27T00:26:59.199Z,-7.30
2018-02-27T00:29:27.500Z,-7.30
2018-02-27T00:31:55.766Z,-7.30
2018-02-27T00:34:24.028Z,-7.30
2018-02-27T00:36:52.338Z,-7.30
2018-02-27T00:39:20.641Z,-7.30
2018-02-27T00:41:48.890Z,-7.40
2018-02-27T00:44:17.149Z,-7.40
2018-02-27T00:46:45.453Z,-7.40
2018-02-27T00:49:13.714Z,-7.40
2018-02-27T00:51:41.975Z,-7.50
2018-02-27T00:54:10.263Z,-7.50
2018-02-27T00:56:38.515Z,-7.50
2018-02-27T00:59:06.812Z,-7.60
2018-02-27T01:01:35.100Z,-7.60
2018-02-27T01:04:03.359Z,-7.60
2018-02-27T01:06:31.662Z,-7.70
2018-02-27T01:08:59.961Z,-7.70
2018-02-27T01:11:28.301Z,-7.70
2018-02-27T01:13:56.598Z,-7.70
2018-02-27T01:16:24.864Z,-7.70
2018-02-27T01:18:53.113Z,-7.70
2018-02-27T01:21:21.439Z,-7.80
2018-02-27T01:23:49.722Z,-7.80
2018-02-27T01:26:17.974Z,-7.80
2018-02-27T01:28:46.296Z,-7.90
2018-02-27T01:31:14.581Z,-7.90
2018-02-27T01:33:43.687Z,-7.90
2018-02-27T01:36:12.705Z,-7.90
2018-02-27T01:38:40.954Z,-8.00
2018-02-27T01:41:09.995Z,-8.00
2018-02-27T01:43:38.251Z,-8.00
2018-02-27T01:46:06.516Z,-8.00
2018-02-27T01:48:35.556Z,-8.00
2018-02-27T01:51:14.575Z,-8.00
2018-02-27T01:53:42.810Z,-8.00
2018-02-27T01:56:11.120Z,-8.10
2018-02-27T01:58:39.427Z,-8.00
2018-02-27T02:01:07.682Z,-8.00
2018-02-27T02:03:35.990Z,-8.00
2018-02-27T02:06:04.274Z,-8.00
2018-02-27T02:08:32.562Z,-8.00
2018-02-27T02:11:01.606Z,-8.00
2018-02-27T02:13:29.846Z,-8.00
2018-02-27T02:15:58.881Z,-8.00
2018-02-27T02:18:27.173Z,-8.00
2018-02-27T02:20:55.483Z,-8.00
2018-02-27T02:23:23.741Z,-8.00
2018-02-27T02:25:52.038Z,-8.00
2018-02-27T02:28:20.321Z,-8.00
2018-02-27T02:30:49.326Z,-8.00
2018-02-27T02:33:18.409Z,-8.10
2018-02-27T02:35:46.652Z,-8.10
2018-02-27T02:38:15.740Z,-8.20
2018-02-27T02:40:43.982Z,-8.30
2018-02-27T02:43:12.256Z,-8.30
2018-02-27T02:45:40.507Z,-8.40
2018-02-27T02:48:08.754Z,-8.40
2018-02-27T02:50:37.058Z,-8.50
2018-02-27T02:53:05.312Z,-8.50
2018-02-27T02:55:33.636Z,-8.60
2018-02-27T02:58:02.642Z,-8.60
2018-02-27T03:00:30.936Z,-8.60
2018-02-27T03:02:59.241Z,-8.60
2018-02-27T03:05:27.529Z,-8.60
2018-02-27T03:07:55.858Z,-8.60
2018-02-27T03:10:24.114Z,-8.60
2018-02-27T03:12:53.141Z,-8.50
2018-02-27T03:15:21.445Z,-8.50
2018-02-27T03:17:49.691Z,-8.50
2018-02-27T03:20:17.940Z,-8.50
2018-02-27T03:22:46.198Z,-8.50
2018-02-27T03:25:14.522Z,-8.50
2018-02-27T03:27:42.858Z,-8.50
2018-02-27T03:30:11.149Z,-8.50
2018-02-27T03:32:39.431Z,-8.40
2018-02-27T03:35:07.728Z,-8.40
2018-02-27T03:37:35.977Z,-8.40
2018-02-27T03:40:05.001Z,-8.40
2018-02-27T03:42:33.304Z,-8.40
2018-02-27T03:45:01.606Z,-8.40
2018-02-27T03:47:29.924Z,-8.30
2018-02-27T03:49:58.208Z,-8.40
2018-02-27T03:52:26.444Z,-8.40
2018-02-27T03:54:55.477Z,-8.40
2018-02-27T03:57:23.769Z,-8.50
2018-02-27T03:59:52.087Z,-8.40
2018-02-27T04:02:20.338Z,-8.50
2018-02-27T04:04:48.615Z,-8.50
2018-02-27T04:07:16.870Z,-8.50
2018-02-27T04:09:45.120Z,-8.50
2018-02-27T04:12:14.149Z,-8.50
2018-02-27T04:14:42.400Z,-8.50
2018-02-27T04:17:10.661Z,-8.50
2018-02-27T04:19:39.719Z,-8.50
2018-02-27T04:22:08.027Z,-8.50
2018-02-27T04:24:36.318Z,-8.50
2018-02-27T04:27:05.395Z,-8.60
2018-02-27T04:29:33.705Z,-8.60
2018-02-27T04:32:01.991Z,-8.60
2018-02-27T04:34:30.295Z,-8.60
2018-02-27T04:36:58.537Z,-8.60
2018-02-27T04:39:26.839Z,-8.60
2018-02-27T04:41:55.092Z,-8.60
2018-02-27T04:44:23.411Z,-8.60
2018-02-27T04:46:52.422Z,-8.60
2018-02-27T04:49:20.677Z,-8.70
2018-02-27T04:51:48.949Z,-8.60
2018-02-27T04:54:17.240Z,-8.70
2018-02-27T04:56:45.565Z,-8.70
2018-02-27T04:59:14.576Z,-8.70
2018-02-27T05:01:42.826Z,-8.70
2018-02-27T05:04:11.907Z,-8.70
2018-02-27T05:06:40.210Z,-8.70
2018-02-27T05:09:08.481Z,-8.70
2018-02-27T05:11:37.527Z,-8.70
2018-02-27T05:14:05.855Z,-8.70
2018-02-27T05:16:34.922Z,-8.80
2018-02-27T05:19:03.166Z,-8.80
2018-02-27T05:21:31.460Z,-8.80
2018-02-27T05:23:59.789Z,-8.80
2018-02-27T05:26:28.062Z,-8.80
2018-02-27T05:28:57.130Z,-8.80
2018-02-27T05:31:25.452Z,-8.90
2018-02-27T05:33:53.701Z,-8.80
2018-02-27T05:36:22.720Z,-8.90
2018-02-27T05:38:50.993Z,-8.90
2018-02-27T05:41:19.246Z,-8.90
2018-02-27T05:43:48.279Z,-8.90
2018-02-27T05:46:16.572Z,-8.90
2018-02-27T05:48:44.903Z,-8.90
2018-02-27T05:51:14.792Z,-8.90
2018-02-27T05:53:43.093Z,-9.00
2018-02-27T05:56:12.117Z,-8.90
2018-02-27T05:58:40.366Z,-9.00
2018-02-27T06:01:09.453Z,-8.90
2018-02-27T06:03:37.731Z,-8.90
2018-02-27T06:06:06.063Z,-8.90
2018-02-27T06:08:34.306Z,-9.00
2018-02-27T06:11:03.306Z,-9.00
2018-02-27T06:13:31.583Z,-9.00
2018-02-27T06:15:59.841Z,-8.90
2018-02-27T06:18:28.973Z,-8.90
2018-02-27T06:20:57.252Z,-8.90
2018-02-27T06:23:25.494Z,-8.90
2018-02-27T06:25:54.534Z,-8.90
2018-02-27T06:28:22.801Z,-9.00
2018-02-27T06:30:51.120Z,-8.90
2018-02-27T06:33:19.420Z,-8.90
2018-02-27T06:35:48.460Z,-8.90
2018-02-27T06:38:16.757Z,-8.90
2018-02-27T06:40:45.023Z,-8.90
2018-02-27T06:43:13.361Z,-8.90
2018-02-27T06:45:42.417Z,-8.90
2018-02-27T06:48:11.457Z,-8.80
2018-02-27T06:50:39.717Z,-8.90
2018-02-27T06:53:08.784Z,-8.80
2018-02-27T06:55:37.060Z,-8.80
2018-02-27T06:58:05.364Z,-8.80
2018-02-27T07:00:34.378Z,-8.70
2018-02-27T07:03:02.702Z,-8.70
2018-02-27T07:05:31.013Z,-8.70
2018-02-27T07:07:59.320Z,-8.70
2018-02-27T07:10:27.603Z,-8.70
2018-02-27T07:12:55.853Z,-8.60
2018-02-27T07:15:24.167Z,-8.50
2018-02-27T07:17:52.457Z,-8.50
2018-02-27T07:20:20.768Z,-8.50
2018-02-27T07:22:49.021Z,-8.40
2018-02-27T07:25:17.371Z,-8.40
2018-02-27T07:27:45.631Z,-8.40
2018-02-27T07:30:13.919Z,-8.40
2018-02-27T07:32:42.176Z,-8.30
2018-02-27T07:35:10.479Z,-8.30
2018-02-27T07:37:38.776Z,-8.20
2018-02-27T07:40:07.070Z,-8.20
2018-02-27T07:42:35.794Z,-8.10
2018-02-27T07:45:04.826Z,-8.00
2018-02-27T07:47:33.888Z,-7.90
2018-02-27T07:50:02.951Z,-7.90
2018-02-27T07:52:31.248Z,-7.90
2018-02-27T07:55:00.348Z,-7.80
2018-02-27T07:57:29.361Z,-7.70
2018-02-27T07:59:57.675Z,-7.70
2018-02-27T08:02:25.938Z,-7.70
2018-02-27T08:04:54.229Z,-7.60
2018-02-27T08:07:22.544Z,-7.60
2018-02-27T08:09:50.792Z,-7.60
2018-02-27T08:12:19.144Z,-7.50
2018-02-27T08:14:47.429Z,-7.40
2018-02-27T08:17:15.672Z,-7.30
2018-02-27T08:19:43.949Z,-7.30
2018-02-27T08:22:12.242Z,-7.20
2018-02-27T08:24:40.524Z,-7.10
2018-02-27T08:27:08.817Z,-7.10
2018-02-27T08:29:37.117Z,-7.00
2018-02-27T08:32:05.368Z,-7.00
2018-02-27T08:34:33.673Z,-6.90
2018-02-27T08:37:01.954Z,-6.80
2018-02-27T08:39:30.272Z,-6.70
2018-02-27T08:41:58.616Z,-6.70
2018-02-27T08:44:26.903Z,-6.70
2018-02-27T08:46:55.924Z,-6.50
2018-02-27T08:49:24.244Z,-6.50
2018-02-27T08:51:52.540Z,-6.40
2018-02-27T08:54:20.855Z,-6.40
2018-02-27T09:21:32.952Z,-5.50
2018-02-27T09:24:02.942Z,-5.40
2018-02-27T09:26:35.267Z,-5.30
2018-02-27T09:29:13.937Z,-5.40
2018-02-27T09:32:04.421Z,-5.20
2018-02-27T09:34:49.094Z,-5.10
2018-02-27T09:40:05.161Z,-4.90
2018-02-27T09:42:37.237Z,-4.80
2018-02-27T09:45:07.075Z,-4.70
2018-02-27T09:47:46.623Z,-4.70
2018-02-27T09:50:21.474Z,-4.60
2018-02-27T09:52:50.184Z,-4.70
2018-02-27T09:55:18.661Z,-4.60
2018-02-27T09:57:47.729Z,-4.50
2018-02-27T10:00:16.073Z,-4.50
2018-02-27T10:02:44.980Z,-4.50
2018-02-27T10:05:17.696Z,-4.40
2018-02-27T10:07:46.832Z,-4.40
2018-02-27T10:10:16.315Z,-4.30
2018-02-27T10:12:44.593Z,-4.20
2018-02-27T10:15:12.845Z,-4.10
2018-02-27T10:17:42.232Z,-3.90
2018-02-27T10:20:11.211Z,-3.90
2018-02-27T10:22:40.249Z,-3.80
2018-02-27T10:25:08.546Z,-3.90
2018-02-27T10:27:36.916Z,-3.70
2018-02-27T10:30:06.680Z,-3.60
2018-02-27T10:32:34.925Z,-3.60
2018-02-27T10:35:03.207Z,-3.40
2018-02-27T10:37:31.512Z,-3.40
2018-02-27T10:40:01.746Z,-3.20
2018-02-27T10:42:30.795Z,-3.00
2018-02-27T10:45:00.716Z,-3.10
2018-02-27T10:47:29.042Z,-2.90
2018-02-27T10:49:57.664Z,-2.80
2018-02-27T10:52:25.959Z,-2.60
2018-02-27T10:54:54.262Z,-2.40
2018-02-27T10:57:23.259Z,-2.20
2018-02-27T10:59:51.499Z,-2.00
2018-02-27T11:02:20.598Z,-1.80
2018-02-27T11:04:48.892Z,-1.60
2018-02-27T11:07:17.140Z,-1.40
2018-02-27T11:09:45.418Z,-1.20
2018-02-27T11:12:13.713Z,-1.10
2018-02-27T11:14:41.974Z,-0.90
2018-02-27T11:17:10.215Z,-0.70
2018-02-27T11:19:38.505Z,-0.50
2018-02-27T11:22:06.755Z,-0.30
2018-02-27T11:24:36.564Z,0.10
2018-02-27T11:27:04.844Z,0.00
2018-02-27T11:29:33.902Z,0.30
2018-02-27T11:32:02.237Z,0.20
2018-02-27T11:34:30.513Z,0.40
2018-02-27T11:36:58.809Z,0.50
2018-02-27T11:39:27.106Z,0.60
2018-02-27T11:41:55.359Z,0.80
2018-02-27T11:44:23.660Z,1.00
2018-02-27T11:46:51.922Z,1.20
2018-02-27T11:49:20.257Z,1.50
2018-02-27T11:51:48.548Z,1.60
2018-02-27T11:54:17.562Z,2.10
2018-02-27T11:56:45.854Z,2.10
2018-02-27T11:59:14.133Z,2.20
2018-02-27T12:01:42.412Z,2.30
2018-02-27T12:04:10.723Z,2.60
2018-02-27T12:06:39.000Z,3.00
2018-02-27T12:09:07.275Z,3.60
2018-02-27T12:11:35.570Z,4.20
2018-02-27T12:14:04.628Z,5.30
2018-02-27T12:16:32.870Z,5.30
2018-02-27T12:19:01.128Z,6.00
2018-02-27T12:21:30.194Z,7.10
2018-02-27T12:23:58.428Z,7.00
2018-02-27T12:26:26.694Z,7.80
2018-02-27T12:28:54.964Z,8.30
2018-02-27T12:31:23.965Z,9.20
2018-02-27T12:33:52.214Z,9.20
2018-02-27T12:36:21.240Z,10.20
2018-02-27T12:38:49.514Z,10.20
2018-02-27T12:41:17.751Z,10.30
2018-02-27T12:43:46.048Z,10.70
2018-02-27T12:46:15.097Z,11.30
2018-02-27T12:48:43.349Z,11.30
2018-02-27T12:51:11.618Z,11.90
2018-02-27T12:53:39.914Z,12.50
2018-02-27T12:56:08.216Z,13.10
2018-02-27T12:58:36.503Z,13.40
2018-02-27T13:01:04.792Z,13.70
2018-02-27T13:03:33.828Z,13.30
2018-02-27T13:06:02.073Z,13.30
2018-02-27T13:08:31.888Z,13.50
2018-02-27T13:11:00.935Z,13.30
2018-02-27T13:13:29.206Z,13.30
2018-02-27T13:15:57.443Z,13.00
2018-02-27T13:18:25.705Z,13.00
2018-02-27T13:20:54.768Z,13.60
2018-02-27T13:23:23.060Z,13.60
2018-02-27T13:25:51.316Z,13.70
2018-02-27T13:28:19.613Z,13.90
2018-02-27T13:30:47.870Z,14.10
2018-02-27T13:33:16.138Z,14.40
2018-02-27T13:35:44.472Z,14.40
2018-02-27T13:38:13.517Z,13.20
2018-02-27T13:40:41.824Z,13.20
2018-02-27T13:43:10.135Z,12.70
2018-02-27T13:45:38.386Z,12.20
2018-02-27T13:48:07.455Z,11.50
2018-02-27T13:50:35.738Z,11.50
2018-02-27T13:53:04.204Z,11.20
2018-02-27T13:55:32.457Z,11.10
2018-02-27T13:58:00.776Z,11.00
2018-02-27T14:00:29.093Z,10.70
2018-02-27T14:02:57.354Z,10.50
2018-02-27T14:05:26.414Z,10.10
2018-02-27T14:07:54.661Z,10.00
2018-02-27T14:10:22.933Z,9.80
2018-02-27T14:12:51.280Z,9.50
2018-02-27T14:15:19.576Z,9.50
2018-02-27T14:17:47.869Z,9.40
2018-02-27T14:20:16.141Z,9.30
2018-02-27T14:22:44.416Z,9.60
2018-02-27T14:25:12.661Z,9.50
2018-02-27T14:27:42.026Z,9.50
2018-02-27T14:30:10.293Z,9.40
2018-02-27T14:32:38.605Z,9.20
2018-02-27T14:35:06.917Z,9.10
2018-02-27T14:37:35.957Z,8.50
2018-02-27T14:40:04.211Z,8.50
2018-02-27T14:42:32.474Z,8.30
2018-02-27T14:45:01.469Z,7.40
2018-02-27T14:47:29.797Z,7.40
2018-02-27T14:49:58.040Z,7.00
2018-02-27T14:52:26.290Z,6.70
2018-02-27T14:54:54.527Z,6.00
2018-02-27T14:57:22.805Z,5.50
2018-02-27T14:59:51.103Z,5.10
2018-02-27T15:02:19.339Z,4.70
2018-02-27T15:04:47.630Z,4.40
2018-02-27T15:07:15.913Z,4.00
2018-02-27T15:09:44.191Z,3.80
2018-02-27T15:12:12.475Z,3.30
2018-02-27T15:14:40.847Z,3.20
2018-02-27T15:17:09.134Z,2.90
2018-02-27T15:19:37.416Z,2.60
2018-02-27T15:22:05.693Z,2.40
2018-02-27T15:24:33.937Z,2.10
2018-02-27T15:27:02.249Z,1.90
2018-02-27T15:29:30.544Z,1.70
2018-02-27T15:31:59.587Z,1.30
2018-02-27T15:34:27.862Z,1.20
2018-02-27T15:36:56.135Z,1.10
2018-02-27T15:39:24.383Z,1.00
2018-02-27T15:41:52.630Z,0.80
2018-02-27T15:44:22.582Z,0.60
2018-02-27T15:46:50.869Z,0.60
2018-02-27T15:49:19.159Z,0.50
2018-02-27T15:51:47.437Z,0.40
2018-02-27T15:54:15.708Z,0.30
2018-02-27T15:56:44.029Z,0.20
2018-02-27T15:59:12.334Z,0.10
2018-02-27T16:01:41.378Z,-0.10
2018-02-27T16:04:09.635Z,-0.20
2018-02-27T16:06:37.921Z,-0.20
2018-02-27T16:09:06.242Z,-0.20
2018-02-27T16:11:35.245Z,-0.40
2018-02-27T16:14:04.315Z,-0.50
2018-02-27T16:16:32.616Z,-0.50
2018-02-27T16:19:01.715Z,-0.80
2018-02-27T16:21:31.375Z,-0.90
2018-02-27T16:23:59.644Z,-0.90
2018-02-27T16:26:27.934Z,-1.00
2018-02-27T16:28:56.245Z,-1.10
2018-02-27T16:31:24.554Z,-1.10
2018-02-27T16:33:52.818Z,-1.20
2018-02-27T16:36:21.838Z,-1.40
2018-02-27T16:38:50.095Z,-1.40
2018-02-27T16:41:18.396Z,-1.40
2018-02-27T16:43:46.709Z,-1.50
2018-02-27T16:46:15.007Z,-1.60
2018-02-27T16:48:43.302Z,-1.70
2018-02-27T16:51:12.409Z,-1.90
2018-02-27T16:53:40.723Z,-2.00
2018-02-27T16:56:09.757Z,-2.10
2018-02-27T16:58:38.820Z,-2.20
2018-02-27T17:01:07.111Z,-2.20
2018-02-27T17:03:35.394Z,-2.30
2018-02-27T17:06:03.641Z,-2.30
2018-02-27T17:08:31.964Z,-2.40
2018-02-27T17:11:01.049Z,-2.50
2018-02-27T17:13:29.352Z,-2.50
2018-02-27T17:15:57.618Z,-2.50
2018-02-27T17:18:26.642Z,-2.60
2018-02-27T17:20:54.939Z,-2.60
2018-02-27T17:23:23.243Z,-2.60
2018-02-27T17:25:51.506Z,-2.70
2018-02-27T17:28:20.548Z,-2.80
2018-02-27T17:30:48.857Z,-2.80
2018-02-27T17:33:17.144Z,-2.90
2018-02-27T17:35:45.455Z,-2.90
2018-02-27T17:38:13.728Z,-2.90
2018-02-27T17:40:42.020Z,-2.90
2018-02-27T17:43:11.038Z,-3.00
2018-02-27T17:45:39.341Z,-3.00
2018-02-27T17:48:08.484Z,-3.00
2018-02-27T17:50:36.752Z,-3.00
2018-02-27T17:53:05.078Z,-3.00
2018-02-27T17:55:33.391Z,-3.10
2018-02-27T17:58:01.729Z,-3.10
2018-02-27T18:00:29.989Z,-3.10
2018-02-27T18:02:58.324Z,-3.10
2018-02-27T18:05:27.450Z,-3.20
2018-02-27T18:07:57.045Z,-3.20
2018-02-27T18:10:25.361Z,-3.20
2018-02-27T18:12:54.386Z,-3.30
2018-02-27T18:15:22.678Z,-3.30
2018-02-27T18:17:51.010Z,-3.40
2018-02-27T18:20:19.865Z,-3.40
2018-02-27T18:22:48.133Z,-3.50
2018-02-27T18:25:16.496Z,-3.60
2018-02-27T18:27:44.803Z,-3.60
2018-02-27T18:30:13.083Z,-3.60
2018-02-27T18:32:42.185Z,-3.70
2018-02-27T18:35:10.420Z,-3.80
2018-02-27T18:37:38.757Z,-3.80
2018-02-27T18:40:07.829Z,-3.90
2018-02-27T18:42:36.166Z,-3.90
2018-02-27T18:45:04.448Z,-3.90
2018-02-27T18:47:32.694Z,-3.90
2018-02-27T18:50:01.175Z,-4.00
2018-02-27T18:52:29.474Z,-4.00
2018-02-27T18:54:57.789Z,-4.00
2018-02-27T18:57:26.085Z,-4.00
2018-02-27T18:59:55.127Z,-4.10
2018-02-27T19:02:23.480Z,-4.10
2018-02-27T19:04:51.732Z,-4.10
2018-02-27T19:07:20.769Z,-4.30
2018-02-27T19:09:49.036Z,-4.30
2018-02-27T19:12:17.350Z,-4.40
2018-02-27T19:14:45.615Z,-4.50
2018-02-27T19:17:13.943Z,-4.60
2018-02-27T19:19:43.020Z,-4.70
2018-02-27T19:22:11.265Z,-4.70
2018-02-27T19:24:39.554Z,-4.80
2018-02-27T19:27:07.788Z,-5.00
2018-02-27T19:29:36.066Z,-5.10
2018-02-27T19:32:04.326Z,-5.20
2018-02-27T19:34:36.203Z,-5.30
2018-02-27T19:37:04.516Z,-5.30
2018-02-27T19:39:32.872Z,-5.40
2018-02-27T19:42:01.191Z,-5.40
2018-02-27T19:44:29.453Z,-5.50
2018-02-27T19:47:00.052Z,-5.60
2018-02-27T19:49:28.331Z,-5.70
2018-02-27T19:51:57.177Z,-5.80
2018-02-27T19:54:25.457Z,-5.90
2018-02-27T19:56:54.974Z,-6.00
2018-02-27T19:59:23.230Z,-6.00
2018-02-27T20:01:51.574Z,-6.10
2018-02-27T20:04:19.883Z,-6.10
2018-02-27T20:06:48.215Z,-6.10
2018-02-27T20:09:16.494Z,-6.20
2018-02-27T20:11:44.792Z,-6.30
2018-02-27T20:14:18.888Z,-6.40
2018-02-27T20:16:47.173Z,-6.40
2018-02-27T20:19:15.740Z,-6.50
2018-02-27T20:21:44.101Z,-6.60
2018-02-27T20:24:19.800Z,-6.70
2018-02-27T20:26:48.071Z,-6.70
2018-02-27T20:29:22.234Z,-6.80
2018-02-27T20:31:50.513Z,-6.70
2018-02-27T20:34:19.579Z,-6.80
2018-02-27T20:36:47.947Z,-6.80
2018-02-27T20:39:21.866Z,-6.80
2018-02-27T20:41:50.153Z,-6.80
2018-02-27T20:44:18.494Z,-6.90
2018-02-27T20:46:46.796Z,-6.90
2018-02-27T20:49:15.147Z,-7.00
2018-02-27T20:51:43.455Z,-7.00
2018-02-27T20:54:11.781Z,-7.00
2018-02-27T20:56:40.820Z,-7.10
2018-02-27T20:59:09.217Z,-7.10
2018-02-27T21:01:37.513Z,-7.10
2018-02-27T21:04:05.841Z,-7.20
2018-02-27T21:06:34.147Z,-7.20
2018-02-27T21:09:02.489Z,-7.30
2018-02-27T21:11:30.771Z,-7.30
2018-02-27T21:13:59.073Z,-7.30
2018-02-27T21:16:27.361Z,-7.30
2018-02-27T21:18:55.663Z,-7.30
2018-02-27T21:21:23.955Z,-7.30
2018-02-27T21:23:53.058Z,-7.40
2018-02-27T21:26:21.355Z,-7.40
2018-02-27T21:28:50.509Z,-7.40
2018-02-27T21:31:18.801Z,-7.50
2018-02-27T21:33:47.838Z,-7.50
2018-02-27T21:36:16.140Z,-7.50
2018-02-27T21:38:44.429Z,-7.60
2018-02-27T21:41:12.796Z,-7.60
2018-02-27T21:43:41.089Z,-7.70
2018-02-27T21:46:09.420Z,-7.80
2018-02-27T21:48:37.703Z,-7.90
2018-02-27T21:51:06.035Z,-7.90
2018-02-27T21:53:35.144Z,-7.90
2018-02-27T21:56:03.469Z,-8.00
2018-02-27T21:58:31.775Z,-8.00
2018-02-27T22:01:00.798Z,-8.00
2018-02-27T22:03:29.844Z,-8.10
2018-02-27T22:05:58.132Z,-8.10
2018-02-27T22:08:26.412Z,-8.10
2018-02-27T22:10:54.712Z,-8.20
2018-02-27T22:13:23.769Z,-8.40
2018-02-27T22:15:52.069Z,-8.40
2018-02-27T22:18:20.427Z,-8.40
2018-02-27T22:20:48.744Z,-8.50
2018-02-27T22:23:17.030Z,-8.50
2018-02-27T22:25:45.367Z,-8.60
2018-02-27T22:28:13.661Z,-8.60
2018-02-27T22:30:41.967Z,-8.70
2018-02-27T22:33:11.028Z,-8.70
2018-02-27T22:35:39.288Z,-8.80
2018-02-27T22:38:07.575Z,-8.80
2018-02-27T22:40:35.858Z,-8.90
2018-02-27T22:43:04.194Z,-8.90
2018-02-27T22:45:32.490Z,-9.00
2018-02-27T22:48:00.772Z,-9.10
2018-02-27T22:50:29.085Z,-9.10
2018-02-27T22:52:57.376Z,-9.10
2018-02-27T22:55:26.396Z,-9.10
2018-02-27T22:57:54.710Z,-9.10
2018-02-27T23:00:34.822Z,-9.20
2018-02-27T23:03:03.153Z,-9.30
2018-02-27T23:05:31.418Z,-9.30
2018-02-27T23:07:59.730Z,-9.40
2018-02-27T23:10:28.742Z,-9.50
2018-02-27T23:12:57.022Z,-9.50
2018-02-27T23:15:25.286Z,-9.50
2018-02-27T23:17:53.631Z,-9.50
2018-02-27T23:20:21.937Z,-9.40
2018-02-27T23:22:50.963Z,-9.40
2018-02-27T23:25:27.718Z,-9.50
2018-02-27T23:27:59.147Z,-9.30
2018-02-27T23:30:27.605Z,-9.30
2018-02-27T23:32:58.137Z,-9.30
2018-02-27T23:35:26.758Z,-9.30
2018-02-27T23:37:55.822Z,-9.20
2018-02-27T23:40:24.128Z,-9.20
2018-02-27T23:42:53.188Z,-9.20
2018-02-27T23:45:21.506Z,-9.20
2018-02-27T23:47:50.532Z,-9.20
2018-02-27T23:50:20.019Z,-9.20
2018-02-27T23:52:48.320Z,-9.20
2018-02-27T23:55:16.593Z,-9.20
2018-02-27T23:57:44.901Z,-9.20
